Time;durP1;ratioP1;P1;durP2;ratioP2;P2;SDS_P1;SDS_P2;PMS_P1;PMS_P2;Temp;Humidity;BMP_temperature;BMP_pressure;BME280_temperature;BME280_humidity;BME280_pressure;Samples;Min_cycle;Max_cycle;Signal;HPM_P1;HPM_P2
2022/07/09 00:02:25;;;;;;;;;5.50;5.50;;;;;;;;5096355;27;45655;-64
2022/07/09 00:04:50;;;;;;;;;7.75;4.00;;;;;;;;5077215;27;45441;-64
2022/07/09 00:07:15;;;;;;;;;4.25;4.25;;;;;;;;5096535;27;45337;-65
2022/07/09 00:09:40;;;;;;;;;5.00;5.00;;;;;;;;5096266;27;45350;-65
2022/07/09 00:12:06;;;;;;;;;5.00;5.00;;;;;;;;5096135;27;46349;-66
2022/07/09 00:14:31;;;;;;;;;6.00;4.00;;;;;;;;5096471;27;45282;-66
2022/07/09 00:16:56;;;;;;;;;4.00;4.00;;;;;;;;5096154;27;45378;-66
2022/07/09 00:19:21;;;;;;;;;3.50;3.50;;;;;;;;5096260;27;45408;-65
2022/07/09 00:21:47;;;;;;;;;4.75;4.75;;;;;;;;5096210;27;45447;-65
2022/07/09 00:24:12;;;;;;;;;4.00;4.00;;;;;;;;5078067;27;45838;-66
2022/07/09 00:26:37;;;;;;;;;4.00;4.00;;;;;;;;5096376;27;45337;-65
2022/07/09 00:29:02;;;;;;;;;4.00;4.00;;;;;;;;5089164;27;45386;-65
2022/07/09 00:31:27;;;;;;;;;5.75;5.75;;;;;;;;5116461;27;46249;-66
2022/07/09 00:33:53;;;;;;;;;7.00;5.50;;;;;;;;5098025;27;46144;-65
2022/07/09 00:36:18;;;;;;;;;7.50;5.75;;;;;;;;5115346;27;46081;-66
2022/07/09 00:38:44;;;;;;;;;5.25;4.75;;;;;;;;5116903;27;45405;-65
2022/07/09 00:41:09;;;;;;;;;4.75;4.75;;;;;;;;5098242;27;48151;-66
2022/07/09 00:43:34;;;;;;;;;4.75;3.50;;;;;;;;5107520;27;45457;-66
2022/07/09 00:45:59;;;;;;;;;4.25;4.25;;;;;;;;5078077;27;45383;-66
2022/07/09 00:48:25;;;;;;;;;4.75;4.75;;;;;;;;5096228;27;45298;-66
2022/07/09 00:50:50;;;;;;;;;5.00;5.00;;;;;;;;5077564;27;47355;-66
2022/07/09 00:53:17;;;;;;;;;7.00;5.00;;;;;;;;5095947;27;45340;-66
2022/07/09 00:55:44;;;;;;;;;5.25;4.75;;;;;;;;5096048;27;45317;-66
2022/07/09 00:58:10;;;;;;;;;7.50;5.00;;;;;;;;5095898;27;45293;-66
2022/07/09 01:00:35;;;;;;;;;5.00;5.00;;;;;;;;5077404;27;47583;-66
2022/07/09 01:03:01;;;;;;;;;5.00;5.00;;;;;;;;5095673;27;45369;-66
2022/07/09 01:05:26;;;;;;;;;4.50;4.25;;;;;;;;5095971;27;45335;-66
2022/07/09 01:07:52;;;;;;;;;5.75;4.75;;;;;;;;5096031;27;45328;-65
2022/07/09 01:10:17;;;;;;;;;5.00;5.00;;;;;;;;5095779;27;45581;-66
2022/07/09 01:12:42;;;;;;;;;5.00;5.00;;;;;;;;5095917;27;45456;-66
2022/07/09 01:15:08;;;;;;;;;5.00;5.00;;;;;;;;5097179;27;45357;-66
2022/07/09 01:17:39;;;;;;;;;6.00;3.75;;;;;;;;5099380;27;45405;-66
2022/07/09 01:20:05;;;;;;;;;5.50;5.50;;;;;;;;5063919;27;46509;-67
2022/07/09 01:22:30;;;;;;;;;5.75;5.75;;;;;;;;5099233;27;45324;-66
2022/07/09 01:24:56;;;;;;;;;5.00;5.00;;;;;;;;5099346;27;45658;-65
2022/07/09 01:27:22;;;;;;;;;5.00;5.00;;;;;;;;5099386;27;45309;-66
2022/07/09 01:29:49;;;;;;;;;6.00;6.00;;;;;;;;5098583;27;45441;-66
2022/07/09 01:32:15;;;;;;;;;5.50;5.50;;;;;;;;5098854;27;45365;-66
2022/07/09 01:34:40;;;;;;;;;5.75;5.75;;;;;;;;5080326;27;45326;-66
2022/07/09 01:37:06;;;;;;;;;6.00;6.00;;;;;;;;5099111;27;45475;-67
2022/07/09 01:39:31;;;;;;;;;4.00;4.00;;;;;;;;5098635;27;46188;-65
2022/07/09 01:41:56;;;;;;;;;5.75;5.75;;;;;;;;5098965;27;45283;-66
2022/07/09 01:44:21;;;;;;;;;6.00;4.00;;;;;;;;5092558;27;45453;-66
2022/07/09 01:46:47;;;;;;;;;5.50;5.50;;;;;;;;5098971;27;45263;-65
2022/07/09 01:49:12;;;;;;;;;6.50;6.50;;;;;;;;5098718;27;45386;-65
2022/07/09 01:51:37;;;;;;;;;6.00;5.50;;;;;;;;5098648;27;45447;-65
2022/07/09 01:54:03;;;;;;;;;6.75;6.25;;;;;;;;5098762;27;45339;-65
2022/07/09 01:56:28;;;;;;;;;6.00;6.00;;;;;;;;5098542;27;45294;-65
2022/07/09 01:58:53;;;;;;;;;6.75;6.00;;;;;;;;5097014;27;47650;-65
2022/07/09 02:01:20;;;;;;;;;6.00;5.75;;;;;;;;5098617;27;45289;-66
2022/07/09 02:03:45;;;;;;;;;6.50;5.75;;;;;;;;5098492;27;45390;-66
2022/07/09 02:06:10;;;;;;;;;4.75;4.75;;;;;;;;5098370;27;45275;-65
2022/07/09 02:08:36;;;;;;;;;5.25;5.25;;;;;;;;5098470;27;45843;-66
2022/07/09 02:11:02;;;;;;;;;7.00;7.00;;;;;;;;5080001;27;45376;-65
2022/07/09 02:13:27;;;;;;;;;5.00;5.00;;;;;;;;5098232;27;45437;-65
2022/07/09 02:15:52;;;;;;;;;5.75;5.50;;;;;;;;5098433;27;45437;-65
2022/07/09 02:18:18;;;;;;;;;6.50;5.25;;;;;;;;5079846;27;47770;-65
2022/07/09 02:20:43;;;;;;;;;4.50;4.50;;;;;;;;5098150;27;45349;-66
2022/07/09 02:23:08;;;;;;;;;5.75;5.75;;;;;;;;5098319;27;45410;-66
2022/07/09 02:25:33;;;;;;;;;5.00;5.00;;;;;;;;5079632;27;45370;-63
2022/07/09 02:27:59;;;;;;;;;5.00;5.00;;;;;;;;5097090;27;46601;-64
2022/07/09 02:30:24;;;;;;;;;3.75;3.75;;;;;;;;5098174;27;45380;-65
2022/07/09 02:32:49;;;;;;;;;8.25;7.00;;;;;;;;5097987;27;45454;-65
2022/07/09 02:35:14;;;;;;;;;5.50;5.50;;;;;;;;5097722;27;45313;-65
2022/07/09 02:37:41;;;;;;;;;6.75;6.75;;;;;;;;5079506;27;48592;-65
2022/07/09 02:40:07;;;;;;;;;7.25;6.50;;;;;;;;5098052;27;45375;-65
2022/07/09 02:42:32;;;;;;;;;5.25;5.25;;;;;;;;5097995;27;45198;-66
2022/07/09 02:44:57;;;;;;;;;5.50;4.50;;;;;;;;5097038;27;45296;-66
2022/07/09 02:47:22;;;;;;;;;6.50;5.50;;;;;;;;5096986;27;45675;-66
2022/07/09 02:49:48;;;;;;;;;6.25;5.75;;;;;;;;5097196;27;45195;-65
2022/07/09 02:52:13;;;;;;;;;5.00;5.00;;;;;;;;5097291;27;45257;-65
2022/07/09 02:54:38;;;;;;;;;7.25;6.00;;;;;;;;5097348;27;45298;-65
2022/07/09 02:57:03;;;;;;;;;9.75;8.75;;;;;;;;5079283;27;47440;-65
2022/07/09 02:59:29;;;;;;;;;6.25;6.25;;;;;;;;5097493;27;45263;-65
2022/07/09 03:01:54;;;;;;;;;9.50;8.25;;;;;;;;5097801;27;45265;-65
2022/07/09 03:04:19;;;;;;;;;5.50;5.50;;;;;;;;5079515;27;45222;-65
2022/07/09 03:06:44;;;;;;;;;5.25;5.00;;;;;;;;5097511;27;46618;-65
2022/07/09 03:09:09;;;;;;;;;6.50;6.50;;;;;;;;5097645;27;45328;-65
2022/07/09 03:11:35;;;;;;;;;6.25;6.25;;;;;;;;5097664;27;45413;-65
2022/07/09 03:14:00;;;;;;;;;6.25;5.25;;;;;;;;5097645;27;45300;-65
2022/07/09 03:16:25;;;;;;;;;5.25;5.25;;;;;;;;5097411;27;45661;-65
2022/07/09 03:18:50;;;;;;;;;5.75;5.75;;;;;;;;5097304;27;45225;-65
2022/07/09 03:21:15;;;;;;;;;7.75;7.75;;;;;;;;5097563;27;45380;-64
2022/07/09 03:23:41;;;;;;;;;7.25;6.25;;;;;;;;5079172;27;45653;-65
2022/07/09 03:26:06;;;;;;;;;9.25;9.25;;;;;;;;5097054;27;45367;-65
2022/07/09 03:28:32;;;;;;;;;11.75;10.25;;;;;;;;5097106;27;45529;-65
2022/07/09 03:30:57;;;;;;;;;9.00;9.00;;;;;;;;5097361;27;45482;-65
2022/07/09 03:33:22;;;;;;;;;8.25;8.25;;;;;;;;5092113;27;45829;-67
2022/07/09 03:35:48;;;;;;;;;6.50;6.50;;;;;;;;5087668;27;45396;-64
2022/07/09 03:38:13;;;;;;;;;9.25;8.25;;;;;;;;5080158;27;45681;-64
2022/07/09 03:40:38;;;;;;;;;8.75;8.75;;;;;;;;5084810;27;45438;-65
2022/07/09 03:43:03;;;;;;;;;7.00;7.00;;;;;;;;5078890;27;45342;-65
2022/07/09 03:45:29;;;;;;;;;7.25;7.25;;;;;;;;5097796;27;46462;-64
2022/07/09 03:47:54;;;;;;;;;8.75;8.75;;;;;;;;5078063;27;45363;-66
2022/07/09 03:50:20;;;;;;;;;7.75;7.75;;;;;;;;5096942;27;45376;-65
2022/07/09 03:52:45;;;;;;;;;10.25;9.25;;;;;;;;5096766;27;45440;-66
2022/07/09 03:55:11;;;;;;;;;7.50;7.50;;;;;;;;5088863;27;45348;-66
2022/07/09 03:57:36;;;;;;;;;7.50;7.50;;;;;;;;5079846;27;45359;-65
2022/07/09 04:00:01;;;;;;;;;8.75;8.75;;;;;;;;5076492;28;45455;-66
2022/07/09 04:02:26;;;;;;;;;9.75;9.75;;;;;;;;5076157;28;45464;-66
2022/07/09 04:04:51;;;;;;;;;9.00;7.75;;;;;;;;5075382;27;48589;-66
2022/07/09 04:07:17;;;;;;;;;10.25;8.75;;;;;;;;5117149;27;45448;-65
2022/07/09 04:09:42;;;;;;;;;6.75;6.75;;;;;;;;5113472;27;45367;-66
2022/07/09 04:12:07;;;;;;;;;8.75;8.75;;;;;;;;5087064;27;45309;-67
2022/07/09 04:14:33;;;;;;;;;9.00;8.25;;;;;;;;5076068;28;47718;-67
2022/07/09 04:16:58;;;;;;;;;9.50;8.75;;;;;;;;5076178;28;45415;-67
2022/07/09 04:19:23;;;;;;;;;8.75;8.75;;;;;;;;5057684;28;45277;-66
2022/07/09 04:21:48;;;;;;;;;12.00;11.00;;;;;;;;5078287;27;45567;-65
2022/07/09 04:24:15;;;;;;;;;8.00;8.00;;;;;;;;5075115;28;46698;-65
2022/07/09 04:26:40;;;;;;;;;12.00;10.25;;;;;;;;5074145;28;45357;-66
2022/07/09 04:29:06;;;;;;;;;10.75;7.25;;;;;;;;5075310;28;45396;-65
2022/07/09 04:31:31;;;;;;;;;9.00;9.00;;;;;;;;5075726;28;45566;-65
2022/07/09 04:33:56;;;;;;;;;10.00;9.75;;;;;;;;5075724;28;46010;-65
2022/07/09 04:36:21;;;;;;;;;11.25;11.25;;;;;;;;5075607;28;45381;-65
2022/07/09 04:38:46;;;;;;;;;10.50;10.25;;;;;;;;5075919;28;45215;-64
2022/07/09 04:41:12;;;;;;;;;9.00;9.00;;;;;;;;5075976;28;45311;-65
2022/07/09 04:43:37;;;;;;;;;9.25;9.25;;;;;;;;5085002;27;45837;-64
2022/07/09 04:46:02;;;;;;;;;9.75;9.75;;;;;;;;5096086;27;45297;-65
2022/07/09 04:48:28;;;;;;;;;12.25;12.25;;;;;;;;5096389;27;45408;-64
2022/07/09 04:50:53;;;;;;;;;10.25;10.25;;;;;;;;5098817;27;45223;-65
2022/07/09 04:53:18;;;;;;;;;10.25;10.25;;;;;;;;5099733;27;45375;-65
2022/07/09 04:55:43;;;;;;;;;8.50;8.50;;;;;;;;5099605;27;45413;-65
2022/07/09 04:58:09;;;;;;;;;7.75;7.75;;;;;;;;5099518;27;45356;-65
2022/07/09 05:00:34;;;;;;;;;9.25;9.25;;;;;;;;5099720;27;45393;-64
2022/07/09 05:03:00;;;;;;;;;8.50;8.50;;;;;;;;5099275;27;45734;-65
2022/07/09 05:05:25;;;;;;;;;6.25;6.25;;;;;;;;5099427;27;45348;-65
2022/07/09 05:07:51;;;;;;;;;11.50;10.50;;;;;;;;5099624;27;45371;-66
2022/07/09 05:10:17;;;;;;;;;12.00;11.75;;;;;;;;5099551;27;45313;-65
2022/07/09 05:12:42;;;;;;;;;9.50;9.50;;;;;;;;5099418;27;46428;-65
2022/07/09 05:15:08;;;;;;;;;9.75;9.75;;;;;;;;5080811;27;45961;-65
2022/07/09 05:17:34;;;;;;;;;11.50;10.50;;;;;;;;5099506;27;45308;-65
2022/07/09 05:19:59;;;;;;;;;11.50;9.50;;;;;;;;5099511;27;45324;-66
2022/07/09 05:22:25;;;;;;;;;10.75;10.75;;;;;;;;5080737;27;46489;-66
2022/07/09 05:24:50;;;;;;;;;11.50;9.75;;;;;;;;5099218;27;45333;-66
2022/07/09 05:27:15;;;;;;;;;9.25;9.25;;;;;;;;5099362;27;45344;-68
2022/07/09 05:29:40;;;;;;;;;14.25;12.75;;;;;;;;5098965;27;45352;-65
2022/07/09 05:32:06;;;;;;;;;12.50;11.50;;;;;;;;5080589;27;47628;-66
2022/07/09 05:34:31;;;;;;;;;11.00;11.00;;;;;;;;5098912;27;45147;-64
2022/07/09 05:36:56;;;;;;;;;12.50;11.50;;;;;;;;5099182;27;45429;-65
2022/07/09 05:39:22;;;;;;;;;7.50;7.50;;;;;;;;5099099;27;45335;-66
2022/07/09 05:41:48;;;;;;;;;12.25;12.25;;;;;;;;5098950;27;46086;-65
2022/07/09 05:44:13;;;;;;;;;12.00;12.00;;;;;;;;5080334;27;45489;-65
2022/07/09 05:46:38;;;;;;;;;12.75;12.00;;;;;;;;5080441;27;45324;-66
2022/07/09 05:49:04;;;;;;;;;11.25;11.25;;;;;;;;5098901;27;45388;-65
2022/07/09 05:51:29;;;;;;;;;13.50;12.50;;;;;;;;5080265;27;47765;-66
2022/07/09 05:53:54;;;;;;;;;16.50;12.75;;;;;;;;5098671;27;45391;-65
2022/07/09 05:56:20;;;;;;;;;13.75;12.75;;;;;;;;5080507;27;45409;-66
2022/07/09 05:58:45;;;;;;;;;10.00;9.00;;;;;;;;5098643;27;45365;-66
2022/07/09 06:01:12;;;;;;;;;11.00;11.00;;;;;;;;5097333;27;45546;-66
2022/07/09 06:03:38;;;;;;;;;11.75;11.75;;;;;;;;5080062;27;45393;-66
2022/07/09 06:06:03;;;;;;;;;10.00;10.00;;;;;;;;5080098;27;45393;-65
2022/07/09 06:08:28;;;;;;;;;12.25;11.25;;;;;;;;5080217;27;45485;-65
2022/07/09 06:10:53;;;;;;;;;12.50;12.50;;;;;;;;5079792;27;47556;-64
2022/07/09 06:13:19;;;;;;;;;9.00;9.00;;;;;;;;5080056;27;45435;-64
2022/07/09 06:15:44;;;;;;;;;12.50;12.50;;;;;;;;5098499;27;46042;-64
2022/07/09 06:18:09;;;;;;;;;11.00;11.00;;;;;;;;5098506;27;45282;-65
2022/07/09 06:20:34;;;;;;;;;12.75;12.50;;;;;;;;5098263;27;45482;-66
2022/07/09 06:22:59;;;;;;;;;13.50;13.25;;;;;;;;5098422;27;45360;-66
2022/07/09 06:25:25;;;;;;;;;11.50;10.00;;;;;;;;5098408;27;45277;-66
2022/07/09 06:27:50;;;;;;;;;9.25;8.25;;;;;;;;5080080;27;45440;-65
2022/07/09 06:30:15;;;;;;;;;13.00;13.00;;;;;;;;5079555;27;48515;-65
2022/07/09 06:32:40;;;;;;;;;11.50;10.50;;;;;;;;5079650;27;46107;-65
2022/07/09 06:35:06;;;;;;;;;10.25;10.25;;;;;;;;5079959;27;45486;-65
2022/07/09 06:37:31;;;;;;;;;9.25;9.25;;;;;;;;5097204;27;45443;-66
2022/07/09 06:39:59;;;;;;;;;11.50;10.25;;;;;;;;5068441;27;48254;-66
2022/07/09 06:42:24;;;;;;;;;7.50;7.50;;;;;;;;5087515;27;45295;-65
2022/07/09 06:44:49;;;;;;;;;11.75;11.50;;;;;;;;5067937;28;46162;-65
2022/07/09 06:47:14;;;;;;;;;9.75;9.75;;;;;;;;5063662;28;45350;-66
2022/07/09 06:49:40;;;;;;;;;13.25;11.25;;;;;;;;5084199;27;46678;-66
2022/07/09 06:52:05;;;;;;;;;13.25;13.25;;;;;;;;5083662;27;45456;-68
2022/07/09 06:54:31;;;;;;;;;10.75;9.75;;;;;;;;5076062;28;45353;-66
2022/07/09 06:56:56;;;;;;;;;12.00;12.00;;;;;;;;5058880;28;45438;-67
2022/07/09 06:59:22;;;;;;;;;9.75;9.00;;;;;;;;5077105;28;45945;-65
2022/07/09 07:01:47;;;;;;;;;9.00;9.00;;;;;;;;5061040;27;46289;-65
2022/07/09 07:04:14;;;;;;;;;11.00;9.25;;;;;;;;5091147;27;45342;-65
2022/07/09 07:06:39;;;;;;;;;11.00;11.00;;;;;;;;5084372;27;45266;-65
2022/07/09 07:09:04;;;;;;;;;11.75;9.50;;;;;;;;5097058;27;45226;-66
2022/07/09 07:11:30;;;;;;;;;11.75;9.50;;;;;;;;5068870;28;46194;-67
2022/07/09 07:13:55;;;;;;;;;11.00;11.00;;;;;;;;5076671;28;45213;-66
2022/07/09 07:16:20;;;;;;;;;9.25;8.25;;;;;;;;5076804;28;45298;-67
2022/07/09 07:18:45;;;;;;;;;11.75;11.75;;;;;;;;5077057;27;45515;-67
2022/07/09 07:21:10;;;;;;;;;10.25;10.25;;;;;;;;5083465;27;45381;-66
2022/07/09 07:23:36;;;;;;;;;9.50;9.50;;;;;;;;5084940;27;45311;-66
2022/07/09 07:26:01;;;;;;;;;11.00;9.50;;;;;;;;5079404;27;45327;-67
2022/07/09 07:28:26;;;;;;;;;8.25;7.75;;;;;;;;5085427;27;45749;-66
2022/07/09 07:30:51;;;;;;;;;11.00;9.50;;;;;;;;5058196;28;45551;-65
2022/07/09 07:33:16;;;;;;;;;10.75;9.75;;;;;;;;5075711;28;45511;-65
2022/07/09 07:35:43;;;;;;;;;11.00;10.75;;;;;;;;5075879;28;45357;-65
2022/07/09 07:38:08;;;;;;;;;9.25;9.25;;;;;;;;5075445;28;46584;-65
2022/07/09 07:40:33;;;;;;;;;9.25;8.25;;;;;;;;5076320;28;45377;-65
2022/07/09 07:42:59;;;;;;;;;9.25;8.25;;;;;;;;5078717;27;45326;-65
2022/07/09 07:45:24;;;;;;;;;8.50;8.50;;;;;;;;5097152;27;45383;-65
2022/07/09 07:47:49;;;;;;;;;8.75;8.50;;;;;;;;5096758;27;46086;-65
2022/07/09 07:50:14;;;;;;;;;13.00;9.75;;;;;;;;5096816;27;45475;-65
2022/07/09 07:52:39;;;;;;;;;6.25;5.75;;;;;;;;5078739;27;45343;-65
2022/07/09 07:55:05;;;;;;;;;9.50;9.50;;;;;;;;5096794;27;45362;-67
2022/07/09 07:57:30;;;;;;;;;8.00;8.00;;;;;;;;5078061;27;48604;-66
2022/07/09 07:59:55;;;;;;;;;10.25;10.25;;;;;;;;5096657;27;45500;-65
2022/07/09 08:02:21;;;;;;;;;8.75;7.75;;;;;;;;5078370;27;45330;-65
2022/07/09 08:04:46;;;;;;;;;9.50;9.50;;;;;;;;5078411;27;45526;-65
2022/07/09 08:07:12;;;;;;;;;8.50;8.50;;;;;;;;5078327;27;46682;-65
2022/07/09 08:09:37;;;;;;;;;6.00;6.00;;;;;;;;5096535;27;45661;-65
2022/07/09 08:12:02;;;;;;;;;9.50;9.50;;;;;;;;5096806;27;45342;-66
2022/07/09 08:14:27;;;;;;;;;9.25;8.00;;;;;;;;5078287;27;45592;-65
2022/07/09 08:16:53;;;;;;;;;9.25;8.25;;;;;;;;5096390;27;46438;-65
2022/07/09 08:19:18;;;;;;;;;8.00;8.00;;;;;;;;5078142;27;45338;-65
2022/07/09 08:21:43;;;;;;;;;7.25;6.50;;;;;;;;5077976;27;45368;-66
2022/07/09 08:24:08;;;;;;;;;7.25;7.25;;;;;;;;5096642;27;45318;-65
2022/07/09 08:26:34;;;;;;;;;6.00;6.00;;;;;;;;5099860;27;45640;-65
2022/07/09 08:28:59;;;;;;;;;19.25;17.75;;;;;;;;5100007;27;45324;-66
2022/07/09 08:31:24;;;;;;;;;9.00;9.00;;;;;;;;5081766;27;45384;-65
2022/07/09 08:33:50;;;;;;;;;22.00;16.00;;;;;;;;5099773;27;45460;-66
2022/07/09 08:36:16;;;;;;;;;6.00;6.00;;;;;;;;5099764;27;45539;-66
2022/07/09 08:38:41;;;;;;;;;11.25;9.50;;;;;;;;5081184;27;45467;-66
2022/07/09 08:41:06;;;;;;;;;7.25;7.25;;;;;;;;5099887;27;45364;-65
2022/07/09 08:43:33;;;;;;;;;9.50;7.25;;;;;;;;5099792;27;45292;-67
2022/07/09 08:45:58;;;;;;;;;7.75;7.75;;;;;;;;5081399;27;48798;-66
2022/07/09 08:48:23;;;;;;;;;8.00;8.00;;;;;;;;5081920;27;46314;-65
2022/07/09 08:50:50;;;;;;;;;8.00;8.00;;;;;;;;5100563;27;45337;-66
2022/07/09 08:53:19;;;;;;;;;6.00;6.00;;;;;;;;5081350;27;45461;-66
2022/07/09 08:55:47;;;;;;;;;5.25;5.25;;;;;;;;5099549;27;45756;-66
2022/07/09 08:58:13;;;;;;;;;7.75;5.50;;;;;;;;5098533;27;45648;-66
2022/07/09 09:00:41;;;;;;;;;8.25;6.00;;;;;;;;5099664;27;45404;-66
2022/07/09 09:03:07;;;;;;;;;6.25;6.25;;;;;;;;5099633;27;45407;-67
2022/07/09 09:05:32;;;;;;;;;3.00;2.00;;;;;;;;5099232;27;46193;-66
2022/07/09 09:07:57;;;;;;;;;6.75;6.50;;;;;;;;5099673;27;45297;-66
2022/07/09 09:10:23;;;;;;;;;5.25;5.25;;;;;;;;5099526;27;45473;-66
2022/07/09 09:12:49;;;;;;;;;5.00;5.00;;;;;;;;5099508;27;45338;-65
2022/07/09 09:15:18;;;;;;;;;4.25;3.75;;;;;;;;5099338;27;46386;-65
2022/07/09 09:17:46;;;;;;;;;4.00;4.00;;;;;;;;5099234;27;45251;-65
2022/07/09 09:20:15;;;;;;;;;5.25;4.00;;;;;;;;5099222;27;45439;-65
2022/07/09 09:22:44;;;;;;;;;6.00;5.50;;;;;;;;5099285;27;45344;-65
2022/07/09 09:25:15;;;;;;;;;5.00;5.00;;;;;;;;5097763;27;45616;-66
2022/07/09 09:27:40;;;;;;;;;4.25;4.25;;;;;;;;5098890;27;45364;-65
2022/07/09 09:30:09;;;;;;;;;5.00;4.00;;;;;;;;5099041;27;45364;-65
2022/07/09 09:32:34;;;;;;;;;2.25;2.25;;;;;;;;5099199;27;45391;-65
2022/07/09 09:35:02;;;;;;;;;3.00;3.00;;;;;;;;5080162;27;47774;-65
2022/07/09 09:37:28;;;;;;;;;5.25;4.25;;;;;;;;5098604;27;45427;-66
2022/07/09 09:39:54;;;;;;;;;3.50;3.50;;;;;;;;5098038;27;45400;-65
2022/07/09 09:42:19;;;;;;;;;3.75;3.75;;;;;;;;5098855;27;45294;-65
2022/07/09 09:44:47;;;;;;;;;3.50;3.50;;;;;;;;5095712;27;48701;-65
2022/07/09 09:47:13;;;;;;;;;3.25;3.25;;;;;;;;5098894;27;45411;-65
2022/07/09 09:49:40;;;;;;;;;3.00;3.00;;;;;;;;5098872;27;45421;-66
2022/07/09 09:52:09;;;;;;;;;5.25;4.75;;;;;;;;5099004;27;45312;-66
2022/07/09 09:54:36;;;;;;;;;4.00;4.00;;;;;;;;5080454;27;48574;-67
2022/07/09 09:57:05;;;;;;;;;3.25;3.25;;;;;;;;5080353;27;46076;-66
2022/07/09 09:59:31;;;;;;;;;2.25;2.25;;;;;;;;5080188;27;45326;-65
2022/07/09 10:01:56;;;;;;;;;3.50;3.50;;;;;;;;5098676;27;45335;-65
2022/07/09 10:04:22;;;;;;;;;4.00;3.50;;;;;;;;5098466;27;46420;-66
2022/07/09 10:06:47;;;;;;;;;2.50;2.50;;;;;;;;5098436;27;45184;-66
2022/07/09 10:09:13;;;;;;;;;1.75;1.75;;;;;;;;5080175;27;45529;-65
2022/07/09 10:11:39;;;;;;;;;3.00;3.00;;;;;;;;5079788;27;45559;-66
2022/07/09 10:14:04;;;;;;;;;4.25;3.00;;;;;;;;5096995;27;48023;-65
2022/07/09 10:16:37;;;;;;;;;4.50;3.50;;;;;;;;5098417;27;45340;-66
2022/07/09 10:19:02;;;;;;;;;2.75;2.75;;;;;;;;5096987;27;45598;-66
2022/07/09 10:21:50;;;;;;;;;3.00;3.00;;;;;;;;5098520;27;45372;-67
2022/07/09 10:24:23;;;;;;;;;4.50;3.25;;;;;;;;5097806;27;47907;-67
2022/07/09 10:26:48;;;;;;;;;3.75;3.00;;;;;;;;5098343;27;45459;-65
2022/07/09 10:29:19;;;;;;;;;3.75;3.75;;;;;;;;5098365;27;45238;-65
2022/07/09 10:31:46;;;;;;;;;2.00;2.00;;;;;;;;5095335;27;45419;-66
2022/07/09 10:34:16;;;;;;;;;2.75;2.75;;;;;;;;5096285;27;46206;-63
2022/07/09 10:36:55;;;;;;;;;3.00;3.00;;;;;;;;5096325;27;45515;-64
2022/07/09 10:39:20;;;;;;;;;3.75;3.75;;;;;;;;5096296;27;45463;-64
2022/07/09 10:41:46;;;;;;;;;3.00;3.00;;;;;;;;5096445;27;45446;-64
2022/07/09 10:44:11;;;;;;;;;3.25;3.00;;;;;;;;5095707;27;46551;-65
2022/07/09 10:46:36;;;;;;;;;5.00;5.00;;;;;;;;5096282;27;45460;-64
2022/07/09 10:49:02;;;;;;;;;4.25;4.25;;;;;;;;5095642;27;45450;-64
2022/07/09 10:51:27;;;;;;;;;4.25;4.25;;;;;;;;5077448;27;45756;-64
2022/07/09 10:53:52;;;;;;;;;5.75;5.75;;;;;;;;5096186;27;45432;-64
2022/07/09 10:56:18;;;;;;;;;5.00;4.00;;;;;;;;5095745;27;46428;-64
2022/07/09 10:58:45;;;;;;;;;2.75;2.75;;;;;;;;5078116;27;45459;-63
2022/07/09 11:01:18;;;;;;;;;3.00;3.00;;;;;;;;5096728;27;45435;-65
2022/07/09 11:03:48;;;;;;;;;4.75;4.75;;;;;;;;5095793;27;47638;-64
2022/07/09 11:06:13;;;;;;;;;4.75;4.75;;;;;;;;5095738;27;45567;-65
2022/07/09 11:08:38;;;;;;;;;3.50;3.50;;;;;;;;5095876;27;45487;-64
2022/07/09 11:11:03;;;;;;;;;3.75;3.75;;;;;;;;5095895;27;45411;-63
2022/07/09 11:13:29;;;;;;;;;4.00;4.00;;;;;;;;5095652;27;45883;-64
2022/07/09 11:15:58;;;;;;;;;4.00;4.00;;;;;;;;5095798;27;45412;-63
2022/07/09 11:18:25;;;;;;;;;4.50;4.50;;;;;;;;5095825;27;45381;-64
2022/07/09 11:20:50;;;;;;;;;4.75;4.75;;;;;;;;5094318;27;45485;-64
2022/07/09 11:23:16;;;;;;;;;4.25;4.25;;;;;;;;5084234;27;47707;-64
2022/07/09 11:25:42;;;;;;;;;4.75;4.50;;;;;;;;5095415;27;45413;-63
2022/07/09 11:28:08;;;;;;;;;5.25;4.75;;;;;;;;5077389;27;45494;-66
2022/07/09 11:30:33;;;;;;;;;4.00;4.00;;;;;;;;5095727;27;45406;-63
2022/07/09 11:32:59;;;;;;;;;4.75;4.50;;;;;;;;5095395;27;46431;-63
2022/07/09 11:35:30;;;;;;;;;5.00;5.00;;;;;;;;5094466;27;45402;-64
2022/07/09 11:37:56;;;;;;;;;4.25;4.25;;;;;;;;5094315;27;45373;-64
2022/07/09 11:40:22;;;;;;;;;4.25;4.25;;;;;;;;5095355;27;45445;-65
2022/07/09 11:42:49;;;;;;;;;4.00;3.50;;;;;;;;5093814;27;48573;-64
2022/07/09 11:45:14;;;;;;;;;5.25;4.00;;;;;;;;5095298;27;45426;-65
2022/07/09 11:47:39;;;;;;;;;3.25;3.25;;;;;;;;5060155;27;45445;-66
2022/07/09 11:50:06;;;;;;;;;3.75;3.75;;;;;;;;5094817;27;45480;-66
2022/07/09 11:52:32;;;;;;;;;4.25;4.25;;;;;;;;5095355;27;46762;-67
2022/07/09 11:55:06;;;;;;;;;5.25;5.25;;;;;;;;5095178;27;45539;-65
2022/07/09 11:57:36;;;;;;;;;4.75;4.75;;;;;;;;5095138;27;45660;-65
2022/07/09 12:00:03;;;;;;;;;5.00;3.50;;;;;;;;5076791;27;45503;-66
2022/07/09 12:02:33;;;;;;;;;4.75;4.75;;;;;;;;5094602;27;45738;-66
2022/07/09 12:04:59;;;;;;;;;6.50;6.50;;;;;;;;5094821;27;45458;-66
2022/07/09 12:07:24;;;;;;;;;6.25;6.25;;;;;;;;5094991;27;45391;-66
2022/07/09 12:10:00;;;;;;;;;3.75;3.75;;;;;;;;5076575;27;45677;-67
2022/07/09 12:12:25;;;;;;;;;3.75;3.75;;;;;;;;5095037;27;46334;-67
2022/07/09 12:14:51;;;;;;;;;5.00;5.00;;;;;;;;5094479;27;45358;-66
2022/07/09 12:17:19;;;;;;;;;7.25;6.25;;;;;;;;5076446;27;45375;-64
2022/07/09 12:19:45;;;;;;;;;5.75;5.75;;;;;;;;5094703;27;45449;-66
2022/07/09 12:22:11;;;;;;;;;4.00;4.00;;;;;;;;5076105;27;47226;-66
2022/07/09 12:24:36;;;;;;;;;4.50;4.50;;;;;;;;5095706;27;45317;-63
2022/07/09 12:27:01;;;;;;;;;6.00;4.50;;;;;;;;5096301;27;45496;-62
2022/07/09 12:29:26;;;;;;;;;4.25;4.00;;;;;;;;5078104;27;45329;-67
2022/07/09 12:31:51;;;;;;;;;4.00;4.00;;;;;;;;5094007;27;45494;-68
2022/07/09 12:34:17;;;;;;;;;5.75;4.00;;;;;;;;5092843;27;45590;-66
2022/07/09 12:36:42;;;;;;;;;3.25;3.25;;;;;;;;5078061;27;45362;-65
2022/07/09 12:39:08;;;;;;;;;5.00;5.00;;;;;;;;5094807;27;45613;-68
2022/07/09 12:41:33;;;;;;;;;5.00;4.00;;;;;;;;5095875;27;45635;-66
2022/07/09 12:43:58;;;;;;;;;5.25;5.25;;;;;;;;5096014;27;45356;-67
2022/07/09 12:46:23;;;;;;;;;5.00;5.00;;;;;;;;5077963;27;45440;-66
2022/07/09 12:48:48;;;;;;;;;6.75;5.00;;;;;;;;5077815;27;45469;-66
2022/07/09 12:51:14;;;;;;;;;4.00;4.00;;;;;;;;5096015;27;46244;-66
2022/07/09 12:53:39;;;;;;;;;4.25;4.25;;;;;;;;5095956;27;45389;-68
2022/07/09 12:56:04;;;;;;;;;5.25;5.25;;;;;;;;5096173;27;45549;-68
2022/07/09 12:58:29;;;;;;;;;4.25;4.25;;;;;;;;5096127;27;45385;-66
2022/07/09 13:00:55;;;;;;;;;4.25;4.25;;;;;;;;5095764;27;45408;-67
2022/07/09 13:03:20;;;;;;;;;5.75;4.75;;;;;;;;5077532;27;45376;-66
2022/07/09 13:05:45;;;;;;;;;4.25;4.25;;;;;;;;5096041;27;45407;-65
2022/07/09 13:08:10;;;;;;;;;6.25;6.25;;;;;;;;5096058;27;45318;-66
2022/07/09 13:10:35;;;;;;;;;5.00;5.00;;;;;;;;5096313;27;45957;-66
2022/07/09 13:13:01;;;;;;;;;4.00;4.00;;;;;;;;5080918;27;46768;-67
2022/07/09 13:15:26;;;;;;;;;4.00;4.00;;;;;;;;5099555;27;45340;-66
2022/07/09 13:17:51;;;;;;;;;4.50;4.50;;;;;;;;5099387;27;45314;-66
2022/07/09 13:20:17;;;;;;;;;4.00;4.00;;;;;;;;5099003;27;45412;-66
2022/07/09 13:22:42;;;;;;;;;3.75;3.00;;;;;;;;5099122;27;45259;-66
2022/07/09 13:25:07;;;;;;;;;4.00;4.00;;;;;;;;5099344;27;45556;-64
2022/07/09 13:27:32;;;;;;;;;3.00;3.00;;;;;;;;5099030;27;45392;-64
2022/07/09 13:29:58;;;;;;;;;3.75;3.75;;;;;;;;5099208;27;46660;-64
2022/07/09 13:32:23;;;;;;;;;2.50;2.50;;;;;;;;5098446;27;45405;-65
2022/07/09 13:34:51;;;;;;;;;4.50;4.50;;;;;;;;5099116;27;45470;-66
2022/07/09 13:37:17;;;;;;;;;6.50;5.50;;;;;;;;5099117;27;45412;-66
2022/07/09 13:39:42;;;;;;;;;3.75;3.75;;;;;;;;5098889;27;45397;-65
2022/07/09 13:42:07;;;;;;;;;6.00;4.00;;;;;;;;5099104;27;45466;-65
2022/07/09 13:44:33;;;;;;;;;4.00;4.00;;;;;;;;5099075;27;45151;-65
2022/07/09 13:46:58;;;;;;;;;4.00;3.00;;;;;;;;5080547;27;45251;-65
2022/07/09 13:49:23;;;;;;;;;4.50;4.50;;;;;;;;5098895;27;45343;-66
2022/07/09 13:51:48;;;;;;;;;4.00;4.00;;;;;;;;5098729;27;45353;-67
2022/07/09 13:54:14;;;;;;;;;5.50;5.50;;;;;;;;5098807;27;45226;-65
2022/07/09 13:56:39;;;;;;;;;3.50;3.25;;;;;;;;5099010;27;45337;-67
2022/07/09 13:59:04;;;;;;;;;4.50;4.50;;;;;;;;5063152;27;48463;-68
2022/07/09 14:01:31;;;;;;;;;4.00;4.00;;;;;;;;5098806;27;45194;-66
2022/07/09 14:03:58;;;;;;;;;5.00;5.00;;;;;;;;5080189;27;45329;-68
2022/07/09 14:06:24;;;;;;;;;5.00;5.00;;;;;;;;5073995;27;45675;-68
2022/07/09 14:08:49;;;;;;;;;4.50;4.50;;;;;;;;5096599;27;48517;-66
2022/07/09 14:11:14;;;;;;;;;4.00;4.00;;;;;;;;5098706;27;45453;-67
2022/07/09 14:13:40;;;;;;;;;4.75;4.50;;;;;;;;5098600;27;45361;-68
2022/07/09 14:16:05;;;;;;;;;5.50;5.50;;;;;;;;5097650;27;45439;-68
2022/07/09 14:18:31;;;;;;;;;4.50;4.50;;;;;;;;5096986;27;45666;-68
2022/07/09 14:20:56;;;;;;;;;4.75;4.75;;;;;;;;5079625;27;45437;-67
2022/07/09 14:23:21;;;;;;;;;3.00;3.00;;;;;;;;5076838;27;45478;-68
2022/07/09 14:25:46;;;;;;;;;6.00;5.00;;;;;;;;5095775;27;45430;-69
2022/07/09 14:28:11;;;;;;;;;5.25;4.75;;;;;;;;5096503;27;48591;-67
2022/07/09 14:30:37;;;;;;;;;5.00;5.00;;;;;;;;5098295;27;45390;-66